Prestwick, United Kingdom
Current Conditions -  °F | °C
As of 4:50 AM on Sunday 26 Oct 2014 (Local Time) from EGPK Reporting Station
Scattered Clouds Scattered Clouds  
Wind Chill: 12°   Ceiling: Unl
Heat Index: 12°   Visibility: 6mi
Dew Point:   Wind: 21mph
Humidity: 77%   Direction: 210°SSW
Pressure: 29.74"   Gusts: NA
Location:  55.48°N, 4.62°W
Report Text: EGPK 260350Z 21018KT 9999 SCT030 12/08 Q1007
Loading
Personal Weather Stations






























Interactive Weather Map
Tropical Storm Tracking
New forecast layout! Learn more

10-Day Weather Forecast

Advertisements
Track Severe Weather on mobile